createdAt,value
2023-05-09T00:00:31.691Z,16.73
2023-05-09T00:01:30.787Z,16.73
2023-05-09T00:02:30.880Z,16.71
2023-05-09T00:03:30.768Z,16.75
2023-05-09T00:04:30.861Z,16.76
2023-05-09T00:05:30.712Z,16.78
2023-05-09T00:06:30.706Z,16.78
2023-05-09T00:07:30.697Z,16.78
2023-05-09T00:08:30.733Z,16.78
2023-05-09T00:09:30.678Z,16.75
2023-05-09T00:10:30.670Z,16.76
2023-05-09T00:11:30.663Z,16.75
2023-05-09T00:12:30.662Z,16.73
2023-05-09T00:13:30.650Z,16.71
2023-05-09T00:14:30.607Z,16.71
2023-05-09T00:15:30.629Z,16.73
2023-05-09T00:16:30.616Z,16.73
2023-05-09T00:17:30.598Z,16.70
2023-05-09T00:18:30.687Z,16.68
2023-05-09T00:19:30.542Z,16.67
2023-05-09T00:20:30.537Z,16.68
2023-05-09T00:21:30.538Z,16.66
2023-05-09T00:22:30.617Z,16.63
2023-05-09T00:23:30.503Z,16.60
2023-05-09T00:24:30.459Z,16.57
2023-05-09T00:25:30.529Z,16.56
2023-05-09T00:26:30.457Z,16.50
2023-05-09T00:27:30.429Z,16.50
2023-05-09T00:28:30.408Z,16.50
2023-05-09T00:29:30.390Z,16.49
2023-05-09T00:30:30.385Z,16.48
2023-05-09T00:31:30.392Z,16.46
2023-05-09T00:32:30.398Z,16.42
2023-05-09T00:33:30.368Z,16.38
2023-05-09T00:34:30.325Z,16.33
2023-05-09T00:35:30.303Z,16.28
2023-05-09T00:36:30.308Z,16.21
2023-05-09T00:37:30.270Z,16.15
2023-05-09T00:38:30.316Z,16.12
2023-05-09T00:39:30.298Z,16.11
2023-05-09T00:40:30.244Z,16.05
2023-05-09T00:41:30.223Z,16.01
2023-05-09T00:42:30.260Z,15.96
2023-05-09T00:43:30.203Z,15.96
2023-05-09T00:44:30.191Z,15.94
2023-05-09T00:45:30.177Z,15.92
2023-05-09T00:46:30.283Z,15.90
2023-05-09T00:47:30.207Z,15.89
2023-05-09T00:48:30.162Z,15.86
2023-05-09T00:49:30.145Z,15.87
2023-05-09T00:50:30.157Z,15.87
2023-05-09T00:51:30.096Z,15.89
2023-05-09T00:52:30.094Z,15.87
2023-05-09T00:53:30.069Z,15.84
2023-05-09T00:54:30.117Z,15.86
2023-05-09T00:55:30.045Z,15.87
2023-05-09T00:56:30.060Z,15.87
2023-05-09T00:57:30.057Z,15.83
2023-05-09T00:58:30.049Z,15.83
2023-05-09T00:59:30.021Z,15.83
2023-05-09T01:00:29.997Z,15.86
2023-05-09T01:01:30.022Z,15.86
2023-05-09T01:02:29.980Z,15.89
2023-05-09T01:03:30.088Z,15.90
2023-05-09T01:04:30.595Z,15.87
2023-05-09T01:05:30.083Z,15.86
2023-05-09T01:06:30.142Z,15.84
2023-05-09T01:07:29.982Z,15.83
2023-05-09T01:08:29.959Z,15.83
2023-05-09T01:09:30.112Z,15.80
2023-05-09T01:10:30.077Z,15.80
2023-05-09T01:11:29.906Z,15.80
2023-05-09T01:12:29.884Z,15.80
2023-05-09T01:13:29.804Z,15.82
2023-05-09T01:14:29.803Z,15.84
2023-05-09T01:15:29.802Z,15.86
2023-05-09T01:16:29.939Z,15.87
2023-05-09T01:17:29.839Z,15.87
2023-05-09T01:18:29.801Z,15.86
2023-05-09T01:19:29.768Z,15.86
2023-05-09T01:20:29.730Z,15.84
2023-05-09T01:21:29.732Z,15.86
2023-05-09T01:22:29.699Z,15.83
2023-05-09T01:23:29.706Z,15.83
2023-05-09T01:24:29.669Z,15.78
2023-05-09T01:25:29.647Z,15.76
2023-05-09T01:26:37.200Z,15.74
2023-05-09T01:27:29.630Z,15.75
2023-05-09T01:28:29.794Z,15.75
2023-05-09T01:29:29.734Z,15.75
2023-05-09T01:30:29.580Z,15.74
2023-05-09T01:31:29.694Z,15.74
2023-05-09T01:32:29.741Z,15.74
2023-05-09T01:33:29.713Z,15.80
2023-05-09T01:34:29.737Z,15.83
2023-05-09T01:35:29.563Z,15.87
2023-05-09T01:36:29.486Z,15.89
2023-05-09T01:37:29.475Z,15.90
2023-05-09T01:38:29.479Z,15.87
2023-05-09T01:39:29.482Z,15.87
2023-05-09T01:40:29.445Z,15.83
2023-05-09T01:41:29.452Z,15.83
2023-05-09T01:42:29.409Z,15.84
2023-05-09T01:43:29.447Z,15.84
2023-05-09T01:44:29.418Z,15.84
2023-05-09T01:45:29.383Z,15.82
2023-05-09T01:46:29.380Z,15.84
2023-05-09T01:47:29.399Z,15.84
2023-05-09T01:48:29.338Z,15.86
2023-05-09T01:49:29.342Z,15.87
2023-05-09T01:50:29.319Z,15.87
2023-05-09T01:51:29.323Z,15.90
2023-05-09T01:52:29.283Z,15.89
2023-05-09T01:53:29.341Z,15.89
2023-05-09T01:54:29.257Z,15.89
2023-05-09T01:55:29.251Z,15.92
2023-05-09T01:56:29.226Z,15.93
2023-05-09T01:57:29.239Z,15.90
2023-05-09T01:58:29.224Z,15.92
2023-05-09T01:59:29.216Z,15.93
2023-05-09T02:00:29.192Z,15.96
2023-05-09T02:01:29.219Z,15.96
2023-05-09T02:02:29.634Z,15.97
2023-05-09T02:03:29.260Z,16.00
2023-05-09T02:04:29.358Z,16.00
2023-05-09T02:05:29.227Z,16.02
2023-05-09T02:06:29.494Z,16.02
2023-05-09T02:07:29.079Z,16.02
2023-05-09T02:08:29.181Z,16.04
2023-05-09T02:09:29.209Z,16.04
2023-05-09T02:10:29.107Z,16.04
2023-05-09T02:11:29.060Z,16.02
2023-05-09T02:12:29.002Z,16.04
2023-05-09T02:13:29.017Z,16.04
2023-05-09T02:14:28.986Z,16.05
2023-05-09T02:15:29.015Z,16.05
2023-05-09T02:16:28.974Z,16.04
2023-05-09T02:17:28.994Z,16.02
2023-05-09T02:18:28.965Z,16.01
2023-05-09T02:19:28.961Z,16.05
2023-05-09T02:20:28.906Z,16.07
2023-05-09T02:21:29.307Z,16.05
2023-05-09T02:22:28.932Z,16.04
2023-05-09T02:23:28.891Z,16.05
2023-05-09T02:24:28.867Z,16.02
2023-05-09T02:25:29.161Z,16.02
2023-05-09T02:26:28.813Z,16.05
2023-05-09T02:27:28.807Z,16.04
2023-05-09T02:28:28.810Z,16.04
2023-05-09T02:29:28.808Z,16.02
2023-05-09T02:30:28.781Z,16.02
2023-05-09T02:31:28.797Z,16.00
2023-05-09T02:32:28.794Z,16.01
2023-05-09T02:33:28.739Z,16.01
2023-05-09T02:34:28.833Z,16.00
2023-05-09T02:35:28.739Z,15.97
2023-05-09T02:36:28.696Z,16.00
2023-05-09T02:37:28.744Z,16.00
2023-05-09T02:38:28.673Z,15.96
2023-05-09T02:39:28.679Z,15.97
2023-05-09T02:40:28.674Z,16.00
2023-05-09T02:41:28.628Z,16.01
2023-05-09T02:42:28.645Z,16.00
2023-05-09T02:43:28.828Z,16.01
2023-05-09T02:44:28.591Z,16.02
2023-05-09T02:45:28.635Z,16.01
2023-05-09T02:46:28.712Z,16.01
2023-05-09T02:47:28.605Z,16.04
2023-05-09T02:48:28.656Z,16.02
2023-05-09T02:49:32.355Z,16.05
2023-05-09T02:50:28.584Z,16.04
2023-05-09T02:51:28.737Z,16.04
2023-05-09T02:52:28.550Z,16.05
2023-05-09T02:53:28.861Z,16.05
2023-05-09T02:54:28.574Z,16.05
2023-05-09T02:55:28.718Z,16.08
2023-05-09T02:56:28.687Z,16.08
2023-05-09T02:57:28.728Z,16.07
2023-05-09T02:58:28.555Z,16.09
2023-05-09T02:59:28.454Z,16.11
2023-05-09T03:00:28.548Z,16.09
2023-05-09T03:01:28.572Z,16.08
2023-05-09T03:02:28.437Z,16.09
2023-05-09T03:03:28.659Z,16.09
2023-05-09T03:04:28.519Z,16.08
2023-05-09T03:05:28.382Z,16.09
2023-05-09T03:06:28.322Z,16.08
2023-05-09T03:07:28.377Z,16.11
2023-05-09T03:08:28.280Z,16.09
2023-05-09T03:09:28.566Z,16.09
2023-05-09T03:10:28.323Z,16.11
2023-05-09T03:11:28.662Z,16.11
2023-05-09T03:12:28.481Z,16.09
2023-05-09T03:13:28.705Z,16.09
2023-05-09T03:14:29.180Z,16.11
2023-05-09T03:15:28.246Z,16.11
2023-05-09T03:16:28.402Z,16.12
2023-05-09T03:17:28.622Z,16.14
2023-05-09T03:18:28.282Z,16.12
2023-05-09T03:19:28.386Z,16.12
2023-05-09T03:20:28.115Z,16.12
2023-05-09T03:21:28.102Z,16.09
2023-05-09T03:22:28.324Z,16.11
2023-05-09T03:23:29.652Z,16.09
2023-05-09T03:24:28.077Z,16.08
2023-05-09T03:25:28.156Z,16.08
2023-05-09T03:26:28.267Z,16.09
2023-05-09T03:27:28.061Z,16.07
2023-05-09T03:28:28.199Z,16.09
2023-05-09T03:29:28.267Z,16.08
2023-05-09T03:30:28.190Z,16.08
2023-05-09T03:31:29.253Z,16.07
2023-05-09T03:32:29.883Z,16.08
2023-05-09T03:33:50.774Z,16.09
2023-05-09T03:34:27.915Z,16.09
2023-05-09T03:35:27.910Z,16.07
2023-05-09T03:36:30.561Z,16.07
2023-05-09T03:37:27.924Z,16.07
2023-05-09T03:38:27.873Z,16.05
2023-05-09T03:39:27.854Z,16.07
2023-05-09T03:40:27.829Z,16.07
2023-05-09T03:41:27.820Z,16.07
2023-05-09T03:42:27.809Z,16.09
2023-05-09T03:43:29.463Z,16.07
2023-05-09T03:44:27.956Z,16.08
2023-05-09T03:45:27.847Z,16.07
2023-05-09T03:46:27.922Z,16.07
2023-05-09T03:47:27.777Z,16.04
2023-05-09T03:48:27.805Z,16.07
2023-05-09T03:49:27.726Z,16.05
2023-05-09T03:50:27.713Z,16.08
2023-05-09T03:51:27.715Z,16.07
2023-05-09T03:52:27.697Z,16.05
2023-05-09T03:53:28.457Z,16.05
2023-05-09T03:54:27.688Z,16.05
2023-05-09T03:55:27.936Z,16.08
2023-05-09T03:56:27.696Z,16.07
2023-05-09T03:57:27.787Z,16.07
2023-05-09T03:58:27.749Z,16.04
2023-05-09T03:59:27.634Z,16.04
2023-05-09T04:00:27.619Z,16.02
2023-05-09T04:01:27.667Z,16.04
2023-05-09T04:02:27.655Z,16.07
2023-05-09T04:03:28.323Z,16.01
2023-05-09T04:04:27.589Z,16.02
2023-05-09T04:05:27.873Z,16.04
2023-05-09T04:06:27.800Z,16.04
2023-05-09T04:07:27.678Z,16.04
2023-05-09T04:08:27.606Z,16.05
2023-05-09T04:09:27.457Z,16.07
2023-05-09T04:10:27.469Z,16.08
2023-05-09T04:11:27.633Z,16.08
2023-05-09T04:12:27.559Z,16.08
2023-05-09T04:13:27.501Z,16.07
2023-05-09T04:14:27.658Z,16.08
2023-05-09T04:15:27.352Z,16.05
2023-05-09T04:16:27.370Z,16.08
2023-05-09T04:17:27.394Z,16.11
2023-05-09T04:18:27.352Z,16.09
2023-05-09T04:19:27.344Z,16.08
2023-05-09T04:20:27.331Z,16.09
2023-05-09T04:21:27.272Z,16.09
2023-05-09T04:22:27.355Z,16.08
2023-05-09T04:23:27.276Z,16.09
2023-05-09T04:24:27.245Z,16.11
2023-05-09T04:25:27.231Z,16.09
2023-05-09T04:26:27.242Z,16.09
2023-05-09T04:27:27.245Z,16.11
2023-05-09T04:28:27.259Z,16.11
2023-05-09T04:29:27.210Z,16.11
2023-05-09T04:30:27.183Z,16.11
2023-05-09T04:31:27.217Z,16.14
2023-05-09T04:32:27.208Z,16.12
2023-05-09T04:33:27.175Z,16.12
2023-05-09T04:34:27.119Z,16.15
2023-05-09T04:35:27.131Z,16.15
2023-05-09T04:36:27.090Z,16.14
2023-05-09T04:37:27.069Z,16.14
2023-05-09T04:38:27.050Z,16.14
2023-05-09T04:39:27.044Z,16.15
2023-05-09T04:40:27.205Z,16.12
2023-05-09T04:41:27.043Z,16.12
2023-05-09T04:42:27.077Z,16.15
2023-05-09T04:43:27.000Z,16.15
2023-05-09T04:44:26.979Z,16.12
2023-05-09T04:45:27.001Z,16.14
2023-05-09T04:46:27.039Z,16.17
2023-05-09T04:47:27.132Z,16.17
2023-05-09T04:48:26.924Z,16.20
2023-05-09T04:49:26.915Z,16.23
2023-05-09T04:50:26.924Z,16.23
2023-05-09T04:51:26.936Z,16.23
2023-05-09T04:52:26.867Z,16.24
2023-05-09T04:53:26.853Z,16.24
2023-05-09T04:54:27.000Z,16.25
2023-05-09T04:55:26.858Z,16.24
2023-05-09T04:56:26.854Z,16.23
2023-05-09T04:57:26.810Z,16.17
2023-05-09T04:58:26.852Z,16.17
2023-05-09T04:59:26.786Z,16.14
2023-05-09T05:00:26.800Z,16.14
2023-05-09T05:01:26.842Z,16.11
2023-05-09T05:02:26.836Z,16.07
2023-05-09T05:03:26.783Z,16.05
2023-05-09T05:04:26.788Z,16.07
2023-05-09T05:05:26.992Z,16.07
2023-05-09T05:06:26.728Z,16.07
2023-05-09T05:07:26.748Z,16.07
2023-05-09T05:08:26.680Z,16.04
2023-05-09T05:09:26.711Z,16.07
2023-05-09T05:10:26.641Z,16.01
2023-05-09T05:11:26.650Z,16.02
2023-05-09T05:12:26.677Z,16.04
2023-05-09T05:13:26.774Z,16.02
2023-05-09T05:14:26.576Z,16.01
2023-05-09T05:15:26.575Z,16.01
2023-05-09T05:16:26.586Z,16.01
2023-05-09T05:17:26.625Z,16.02
2023-05-09T05:18:26.546Z,16.05
2023-05-09T05:19:26.589Z,16.08
2023-05-09T05:20:26.524Z,16.08
2023-05-09T05:21:26.522Z,16.09
2023-05-09T05:22:26.477Z,16.09
2023-05-09T05:23:26.455Z,16.08
2023-05-09T05:24:26.449Z,16.08
2023-05-09T05:25:26.466Z,16.08
2023-05-09T05:26:26.466Z,16.12
2023-05-09T05:27:26.437Z,16.14
2023-05-09T05:28:26.379Z,16.14
2023-05-09T05:29:26.402Z,16.20
2023-05-09T05:30:26.383Z,16.20
2023-05-09T05:31:26.394Z,16.24
2023-05-09T05:32:26.375Z,16.23
2023-05-09T05:33:26.329Z,16.27
2023-05-09T05:34:26.329Z,16.34
2023-05-09T05:35:26.305Z,16.38
2023-05-09T05:36:26.317Z,16.41
2023-05-09T05:37:26.318Z,16.45
2023-05-09T05:38:26.300Z,16.41
2023-05-09T05:39:26.260Z,16.46
2023-05-09T05:40:26.284Z,16.45
2023-05-09T05:41:26.251Z,16.46
2023-05-09T05:42:26.252Z,16.46
2023-05-09T05:43:26.211Z,16.46
2023-05-09T05:44:26.157Z,16.48
2023-05-09T05:45:26.179Z,16.52
2023-05-09T05:46:26.240Z,16.52
2023-05-09T05:47:26.276Z,16.58
2023-05-09T05:48:26.146Z,16.60
2023-05-09T05:49:26.276Z,16.61
2023-05-09T05:50:26.112Z,16.61
2023-05-09T05:51:26.105Z,16.60
2023-05-09T05:52:26.106Z,16.58
2023-05-09T05:53:26.067Z,16.64
2023-05-09T05:54:26.096Z,16.66
2023-05-09T05:55:26.060Z,16.71
2023-05-09T05:56:26.009Z,16.71
2023-05-09T05:57:26.352Z,16.75
2023-05-09T05:58:25.989Z,16.81
2023-05-09T05:59:26.044Z,16.82
2023-05-09T06:00:26.010Z,16.85
2023-05-09T06:01:25.957Z,16.86
2023-05-09T06:02:26.025Z,16.89
2023-05-09T06:03:26.033Z,17.00
2023-05-09T06:04:25.917Z,17.14
2023-05-09T06:05:25.937Z,17.30
2023-05-09T06:06:25.954Z,17.43
2023-05-09T06:07:25.906Z,17.49
2023-05-09T06:08:25.863Z,17.56
2023-05-09T06:09:25.837Z,17.66
2023-05-09T06:10:25.865Z,17.79
2023-05-09T06:11:25.835Z,17.95
2023-05-09T06:12:27.895Z,18.02
2023-05-09T06:13:25.964Z,18.05
2023-05-09T06:14:25.778Z,18.17
2023-05-09T06:15:25.756Z,18.26
2023-05-09T06:16:25.798Z,18.20
2023-05-09T06:17:25.772Z,18.15
2023-05-09T06:18:25.726Z,18.14
2023-05-09T06:19:25.724Z,18.11
2023-05-09T06:20:25.717Z,18.07
2023-05-09T06:21:25.707Z,17.99
2023-05-09T06:22:25.711Z,18.00
2023-05-09T06:23:25.702Z,17.96
2023-05-09T06:24:35.827Z,17.81
2023-05-09T06:25:26.827Z,17.71
2023-05-09T06:26:25.611Z,17.59
2023-05-09T06:27:25.613Z,17.46
2023-05-09T06:28:25.567Z,17.38
2023-05-09T06:29:25.568Z,17.28
2023-05-09T06:30:27.028Z,17.23
2023-05-09T06:31:25.909Z,17.23
2023-05-09T06:32:25.562Z,17.31
2023-05-09T06:33:25.526Z,17.36
2023-05-09T06:34:25.546Z,17.43
2023-05-09T06:35:25.521Z,17.54
2023-05-09T06:36:25.546Z,17.56
2023-05-09T06:37:25.499Z,17.58
2023-05-09T06:38:25.478Z,17.62
2023-05-09T06:39:25.448Z,17.75
2023-05-09T06:40:25.495Z,17.87
2023-05-09T06:41:25.453Z,17.95
2023-05-09T06:42:25.439Z,17.97
2023-05-09T06:43:25.438Z,17.93
2023-05-09T06:44:25.449Z,17.81
2023-05-09T06:45:25.410Z,17.77
2023-05-09T06:46:25.355Z,17.78
2023-05-09T06:47:25.372Z,17.86
2023-05-09T06:48:25.319Z,17.87
2023-05-09T06:49:25.318Z,17.84
2023-05-09T06:50:25.289Z,17.93
2023-05-09T06:51:25.290Z,17.90
2023-05-09T06:52:25.295Z,18.03
2023-05-09T06:53:25.299Z,18.10
2023-05-09T06:54:25.271Z,18.15
2023-05-09T06:55:25.318Z,18.25
2023-05-09T06:56:25.215Z,18.32
2023-05-09T06:57:25.202Z,18.39
2023-05-09T06:58:25.188Z,18.44
2023-05-09T06:59:25.199Z,18.45
2023-05-09T07:00:25.163Z,18.48
2023-05-09T07:01:25.230Z,18.55
2023-05-09T07:02:25.155Z,18.62
2023-05-09T07:03:25.132Z,18.75
2023-05-09T07:04:25.112Z,18.81
2023-05-09T07:05:25.268Z,18.84
2023-05-09T07:06:25.104Z,18.85
2023-05-09T07:07:25.138Z,18.73
2023-05-09T07:08:25.164Z,18.58
2023-05-09T07:09:25.054Z,18.54
2023-05-09T07:10:25.023Z,18.65
2023-05-09T07:11:25.068Z,18.57
2023-05-09T07:12:25.059Z,18.58
2023-05-09T07:13:25.035Z,18.66
2023-05-09T07:14:25.041Z,18.65
2023-05-09T07:15:39.644Z,18.55
2023-05-09T07:16:25.982Z,18.48
2023-05-09T07:17:25.120Z,18.54
2023-05-09T07:18:25.007Z,18.57
2023-05-09T07:19:24.950Z,18.67
2023-05-09T07:20:24.936Z,18.75
2023-05-09T07:21:24.951Z,18.73
2023-05-09T07:22:24.892Z,18.75
2023-05-09T07:23:24.862Z,18.82
2023-05-09T07:24:24.865Z,19.00
2023-05-09T07:25:24.835Z,19.13
2023-05-09T07:26:24.881Z,19.28
2023-05-09T07:27:24.815Z,19.31
2023-05-09T07:28:24.786Z,19.26
2023-05-09T07:29:24.794Z,19.29
2023-05-09T07:30:24.816Z,19.18
2023-05-09T07:31:24.788Z,19.14
2023-05-09T07:32:24.788Z,19.13
2023-05-09T07:33:24.731Z,19.07
2023-05-09T07:34:24.827Z,19.33
2023-05-09T07:35:24.778Z,19.25
2023-05-09T07:36:24.725Z,19.33
2023-05-09T07:37:25.468Z,19.58
2023-05-09T07:38:24.642Z,19.59
2023-05-09T07:39:24.675Z,19.84
2023-05-09T07:40:24.651Z,19.80
2023-05-09T07:41:24.621Z,19.59
2023-05-09T07:42:24.623Z,19.54
2023-05-09T07:43:24.588Z,19.37
2023-05-09T07:44:24.628Z,19.41
2023-05-09T07:45:24.581Z,19.47
2023-05-09T07:46:24.576Z,19.55
2023-05-09T07:47:24.624Z,19.62
2023-05-09T07:48:24.506Z,19.77
2023-05-09T07:49:24.513Z,19.77
2023-05-09T07:50:24.530Z,19.84
2023-05-09T07:51:24.504Z,19.91
2023-05-09T07:52:24.499Z,19.92
2023-05-09T07:53:24.466Z,19.77
2023-05-09T07:54:24.483Z,19.59
2023-05-09T07:55:24.457Z,19.51
2023-05-09T07:56:24.421Z,19.44
2023-05-09T07:57:24.407Z,19.37
2023-05-09T07:58:24.452Z,19.36
2023-05-09T07:59:24.390Z,19.31
2023-05-09T08:00:24.390Z,19.25
2023-05-09T08:01:24.427Z,19.21
2023-05-09T08:02:24.482Z,19.14
2023-05-09T08:03:24.467Z,19.11
2023-05-09T08:04:24.393Z,19.10
2023-05-09T08:05:24.384Z,19.14
2023-05-09T08:06:24.293Z,19.19
2023-05-09T08:07:24.287Z,19.22
2023-05-09T08:08:24.241Z,19.26
2023-05-09T08:09:24.296Z,19.31
2023-05-09T08:10:24.296Z,19.29
2023-05-09T08:11:24.333Z,19.33
2023-05-09T08:12:24.331Z,19.46
2023-05-09T08:13:24.353Z,19.54
2023-05-09T08:14:24.177Z,19.55
2023-05-09T08:15:24.201Z,19.58
2023-05-09T08:16:24.255Z,19.56
2023-05-09T08:17:24.191Z,19.63
2023-05-09T08:18:24.140Z,19.71
2023-05-09T08:19:24.129Z,19.87
2023-05-09T08:20:24.185Z,20.08
2023-05-09T08:21:24.116Z,20.32
2023-05-09T08:22:24.067Z,20.47
2023-05-09T08:23:24.057Z,20.51
2023-05-09T08:24:24.130Z,20.57
2023-05-09T08:25:24.072Z,20.62
2023-05-09T08:26:24.041Z,20.74
2023-05-09T08:27:24.060Z,20.80
2023-05-09T08:28:26.711Z,20.66
2023-05-09T08:29:24.010Z,20.70
2023-05-09T08:30:24.089Z,20.58
2023-05-09T08:31:24.012Z,20.57
2023-05-09T08:32:23.995Z,20.36
2023-05-09T08:33:23.938Z,20.14
2023-05-09T08:34:23.991Z,19.96
2023-05-09T08:35:24.037Z,19.78
2023-05-09T08:36:24.032Z,19.71
2023-05-09T08:37:23.972Z,19.62
2023-05-09T08:38:23.958Z,19.63
2023-05-09T08:39:23.934Z,19.80
2023-05-09T08:40:23.841Z,19.98
2023-05-09T08:41:23.913Z,20.26
2023-05-09T08:42:26.219Z,20.52
2023-05-09T08:43:23.920Z,20.74
2023-05-09T08:44:23.861Z,20.91
2023-05-09T08:45:23.861Z,20.85
2023-05-09T08:46:23.846Z,20.94
2023-05-09T08:47:23.882Z,21.16
2023-05-09T08:48:23.754Z,21.13
2023-05-09T08:49:23.726Z,21.25
2023-05-09T08:50:23.817Z,21.46
2023-05-09T08:51:23.787Z,21.52
2023-05-09T08:52:23.720Z,21.43
2023-05-09T08:53:23.824Z,21.46
2023-05-09T08:54:23.639Z,21.46
2023-05-09T08:55:23.649Z,21.52
2023-05-09T08:56:23.607Z,21.59
2023-05-09T08:57:23.649Z,21.54
2023-05-09T08:58:23.597Z,21.65
2023-05-09T08:59:23.710Z,21.69
2023-05-09T09:00:23.832Z,21.56
2023-05-09T09:01:23.685Z,21.69
2023-05-09T09:02:23.688Z,21.59
2023-05-09T09:03:23.522Z,21.64
2023-05-09T09:04:23.610Z,21.38
2023-05-09T09:05:40.276Z,21.35
2023-05-09T09:06:24.498Z,21.37
2023-05-09T09:07:23.754Z,21.32
2023-05-09T09:08:23.699Z,21.37
2023-05-09T09:09:23.757Z,21.54
2023-05-09T09:10:23.577Z,21.74
2023-05-09T09:11:23.568Z,21.80
2023-05-09T09:12:23.677Z,21.86
2023-05-09T09:13:23.739Z,21.94
2023-05-09T09:14:23.682Z,21.98
2023-05-09T09:15:24.012Z,21.96
2023-05-09T09:16:23.477Z,21.86
2023-05-09T09:17:23.469Z,21.79
2023-05-09T09:18:26.036Z,21.80
2023-05-09T09:19:23.495Z,21.53
2023-05-09T09:20:23.708Z,21.43
2023-05-09T09:21:23.406Z,21.32
2023-05-09T09:22:24.938Z,21.38
2023-05-09T09:23:23.610Z,21.50
2023-05-09T09:24:23.680Z,21.68
2023-05-09T09:25:24.908Z,21.80
2023-05-09T09:26:23.454Z,21.84
2023-05-09T09:27:23.427Z,21.92
2023-05-09T09:28:23.318Z,21.88
2023-05-09T09:29:23.272Z,21.96
2023-05-09T09:30:23.172Z,21.98
2023-05-09T09:31:23.240Z,22.07
2023-05-09T09:32:23.582Z,22.18
2023-05-09T09:33:23.133Z,22.22
2023-05-09T09:34:24.953Z,22.20
2023-05-09T09:35:23.581Z,22.15
2023-05-09T09:36:23.115Z,22.18
2023-05-09T09:37:23.094Z,22.15
2023-05-09T09:38:23.081Z,22.22
2023-05-09T09:39:23.527Z,22.20
2023-05-09T09:40:29.383Z,22.10
2023-05-09T09:41:23.058Z,21.96
2023-05-09T09:42:23.015Z,21.74
2023-05-09T09:43:23.497Z,21.52
2023-05-09T09:44:23.007Z,21.34
2023-05-09T09:45:23.041Z,21.14
2023-05-09T09:46:23.054Z,21.27
2023-05-09T09:47:22.961Z,21.25
2023-05-09T09:48:23.435Z,21.21
2023-05-09T09:49:23.296Z,21.19
2023-05-09T09:50:22.918Z,21.12
2023-05-09T09:51:22.944Z,21.06
2023-05-09T09:52:22.909Z,21.09
2023-05-09T09:53:22.941Z,21.13
2023-05-09T09:54:22.873Z,21.29
2023-05-09T09:55:22.907Z,21.38
2023-05-09T09:56:22.904Z,21.56
2023-05-09T09:57:22.832Z,21.62
2023-05-09T09:58:22.822Z,21.64
2023-05-09T09:59:22.948Z,21.72
2023-05-09T10:00:22.825Z,21.74
2023-05-09T10:01:34.842Z,21.84
2023-05-09T10:02:22.788Z,21.71
2023-05-09T10:03:24.728Z,21.77
2023-05-09T10:04:22.925Z,21.86
2023-05-09T10:05:22.890Z,22.02
2023-05-09T10:06:22.725Z,21.90
2023-05-09T10:07:22.898Z,21.91
2023-05-09T10:08:22.684Z,21.99
2023-05-09T10:09:22.674Z,21.98
2023-05-09T10:10:22.724Z,22.02
2023-05-09T10:11:22.664Z,22.00
2023-05-09T10:12:22.644Z,22.06
2023-05-09T10:13:22.686Z,22.10
2023-05-09T10:14:22.625Z,22.09
2023-05-09T10:15:22.569Z,22.03
2023-05-09T10:16:35.514Z,22.03
2023-05-09T10:17:23.669Z,21.99
2023-05-09T10:18:22.733Z,21.98
2023-05-09T10:19:22.540Z,21.92
2023-05-09T10:20:22.510Z,21.83
2023-05-09T10:21:22.540Z,21.65
2023-05-09T10:22:22.562Z,21.72
2023-05-09T10:23:22.487Z,21.83
2023-05-09T10:24:22.508Z,21.71
2023-05-09T10:25:22.435Z,21.71
2023-05-09T10:26:22.455Z,21.82
2023-05-09T10:27:22.489Z,21.94
2023-05-09T10:28:22.399Z,21.99
2023-05-09T10:29:22.396Z,22.03
2023-05-09T10:30:22.454Z,22.03
2023-05-09T10:31:22.471Z,22.02
2023-05-09T10:32:22.407Z,22.06
2023-05-09T10:33:22.388Z,21.92
2023-05-09T10:34:22.418Z,21.74
2023-05-09T10:35:22.337Z,21.75
2023-05-09T10:36:22.407Z,21.84
2023-05-09T10:37:22.352Z,21.71
2023-05-09T10:38:22.276Z,21.71
2023-05-09T10:39:22.255Z,21.74
2023-05-09T10:40:22.276Z,21.71
2023-05-09T10:41:22.349Z,21.62
2023-05-09T10:42:22.250Z,21.65
2023-05-09T10:43:22.234Z,21.68
2023-05-09T10:44:22.240Z,21.79
2023-05-09T10:45:22.182Z,21.88
2023-05-09T10:46:22.208Z,21.90
2023-05-09T10:47:22.288Z,21.69
2023-05-09T10:48:22.185Z,21.67
2023-05-09T10:49:22.171Z,21.68
2023-05-09T10:50:22.151Z,21.72
2023-05-09T10:51:22.148Z,21.74
2023-05-09T10:52:22.106Z,21.74
2023-05-09T10:53:22.109Z,21.77
2023-05-09T10:54:22.146Z,21.79
2023-05-09T10:55:22.037Z,21.75
2023-05-09T10:56:22.094Z,21.83
2023-05-09T10:57:22.062Z,21.98
2023-05-09T10:58:22.003Z,21.96
2023-05-09T10:59:22.029Z,21.84
2023-05-09T11:00:21.992Z,21.77
2023-05-09T11:01:22.013Z,21.80
2023-05-09T11:02:22.046Z,21.77
2023-05-09T11:03:22.109Z,21.71
2023-05-09T11:04:22.000Z,21.56
2023-05-09T11:05:21.930Z,21.62
2023-05-09T11:06:21.908Z,21.54
2023-05-09T11:07:21.913Z,21.61
2023-05-09T11:08:21.886Z,21.71
2023-05-09T11:09:21.878Z,21.84
2023-05-09T11:10:21.879Z,21.98
2023-05-09T11:11:21.829Z,21.92
2023-05-09T11:12:21.858Z,22.06
2023-05-09T11:13:21.825Z,22.12
2023-05-09T11:14:21.795Z,22.30
2023-05-09T11:15:21.794Z,22.33
2023-05-09T11:16:21.829Z,22.47
2023-05-09T11:17:22.042Z,22.62
2023-05-09T11:18:21.779Z,22.65
2023-05-09T11:19:21.710Z,22.77
2023-05-09T11:20:21.710Z,22.98
2023-05-09T11:21:21.712Z,23.07
2023-05-09T11:22:21.694Z,23.19
2023-05-09T11:23:21.744Z,23.33
2023-05-09T11:24:21.695Z,23.28
2023-05-09T11:25:21.640Z,22.91
2023-05-09T11:26:21.700Z,22.51
2023-05-09T11:27:21.648Z,22.20
2023-05-09T11:28:21.614Z,21.92
2023-05-09T11:29:21.624Z,21.65
2023-05-09T11:30:21.618Z,21.43
2023-05-09T11:31:21.584Z,21.49
2023-05-09T11:32:21.590Z,21.56
2023-05-09T11:33:21.558Z,21.56
2023-05-09T11:34:21.611Z,21.80
2023-05-09T11:35:21.615Z,21.74
2023-05-09T11:36:21.655Z,21.83
2023-05-09T11:37:21.490Z,21.91
2023-05-09T11:38:21.473Z,21.98
2023-05-09T11:39:21.452Z,22.03
2023-05-09T11:40:21.677Z,22.07
2023-05-09T11:41:21.436Z,22.07
2023-05-09T11:42:21.441Z,21.92
2023-05-09T11:43:21.432Z,22.02
2023-05-09T11:44:21.389Z,22.09
2023-05-09T11:45:21.496Z,22.03
2023-05-09T11:46:21.391Z,21.88
2023-05-09T11:47:21.464Z,21.86
2023-05-09T11:48:21.397Z,21.83
2023-05-09T11:49:21.465Z,21.83
2023-05-09T11:50:21.360Z,21.88
2023-05-09T11:51:21.364Z,22.05
2023-05-09T11:52:21.355Z,22.10
2023-05-09T11:53:21.280Z,22.02
2023-05-09T11:54:21.293Z,22.18
2023-05-09T11:55:21.257Z,22.31
2023-05-09T11:56:21.265Z,22.43
2023-05-09T11:57:21.222Z,22.33
2023-05-09T11:58:21.272Z,22.37
2023-05-09T11:59:21.220Z,22.35
2023-05-09T12:00:21.164Z,22.27
2023-05-09T12:01:21.169Z,22.31
2023-05-09T12:02:21.313Z,22.42
2023-05-09T12:03:21.473Z,22.57
2023-05-09T12:04:21.190Z,22.79
2023-05-09T12:05:21.103Z,22.94
2023-05-09T12:06:21.712Z,22.86
2023-05-09T12:07:21.285Z,22.90
2023-05-09T12:08:21.121Z,22.65
2023-05-09T12:09:21.094Z,22.54
2023-05-09T12:10:21.080Z,22.70
2023-05-09T12:11:21.059Z,23.07
2023-05-09T12:12:21.022Z,23.46
2023-05-09T12:13:21.079Z,23.88
2023-05-09T12:14:21.034Z,23.93
2023-05-09T12:15:21.409Z,23.98
2023-05-09T12:16:21.273Z,24.06
2023-05-09T12:17:21.026Z,23.85
2023-05-09T12:18:20.953Z,23.57
2023-05-09T12:19:20.948Z,23.38
2023-05-09T12:20:20.934Z,23.09
2023-05-09T12:21:20.942Z,22.98
2023-05-09T12:22:20.920Z,22.85
2023-05-09T12:23:20.898Z,22.75
2023-05-09T12:24:20.885Z,22.85
2023-05-09T12:25:20.857Z,22.70
2023-05-09T12:26:20.942Z,22.72
2023-05-09T12:27:20.841Z,22.67
2023-05-09T12:28:20.806Z,22.64
2023-05-09T12:29:20.815Z,22.67
2023-05-09T12:30:20.805Z,22.82
2023-05-09T12:31:20.785Z,22.80
2023-05-09T12:32:20.774Z,23.09
2023-05-09T12:33:20.746Z,23.10
2023-05-09T12:34:20.741Z,23.10
2023-05-09T12:35:20.739Z,22.80
2023-05-09T12:36:20.720Z,22.54
2023-05-09T12:37:20.736Z,22.51
2023-05-09T12:38:20.758Z,22.68
2023-05-09T12:39:20.724Z,22.52
2023-05-09T12:40:20.654Z,22.39
2023-05-09T12:41:34.842Z,22.45
2023-05-09T12:42:21.664Z,22.43
2023-05-09T12:43:20.645Z,22.55
2023-05-09T12:44:20.616Z,22.75
2023-05-09T12:45:20.629Z,22.77
2023-05-09T12:46:20.697Z,22.72
2023-05-09T12:47:20.620Z,22.72
2023-05-09T12:48:20.546Z,22.75
2023-05-09T12:49:20.544Z,22.80
2023-05-09T12:50:20.530Z,22.94
2023-05-09T12:51:20.511Z,22.82
2023-05-09T12:52:20.521Z,22.79